Time;durP1;ratioP1;P1;durP2;ratioP2;P2;SDS_P1;SDS_P2;PMS_P1;PMS_P2;Temp;Humidity;BMP_temperature;BMP_pressure;BME280_temperature;BME280_humidity;BME280_pressure;Samples;Min_cycle;Max_cycle;Signal;HPM_P1;HPM_P2
2023/09/23 00:00:15;;;;;;;3.10;1.00;;;11.90;99.90;;;;;;5047329;28;20182;-68
2023/09/23 00:02:43;;;;;;;1.30;0.80;;;11.90;99.90;;;;;;5044290;28;20183;-68
2023/09/23 00:05:10;;;;;;;1.23;0.70;;;11.90;99.90;;;;;;5052800;28;20179;-67
2023/09/23 00:07:36;;;;;;;1.30;0.90;;;11.80;99.90;;;;;;5052611;28;21066;-68
2023/09/23 00:10:08;;;;;;;1.83;0.90;;;11.80;99.90;;;;;;5052240;28;20179;-67
2023/09/23 00:12:35;;;;;;;2.20;0.90;;;11.90;99.90;;;;;;5052516;28;20183;-68
2023/09/23 00:15:01;;;;;;;2.30;0.70;;;11.80;99.90;;;;;;5048031;28;20697;-68
2023/09/23 00:17:27;;;;;;;3.77;0.83;;;11.80;99.90;;;;;;5047562;28;20569;-68
2023/09/23 00:19:52;;;;;;;1.20;0.87;;;11.80;99.90;;;;;;5027258;28;20186;-67
2023/09/23 00:22:18;;;;;;;2.27;0.90;;;11.80;99.90;;;;;;5052856;28;20546;-68
2023/09/23 00:24:44;;;;;;;3.03;0.80;;;11.70;99.90;;;;;;5052392;28;20697;-68
2023/09/23 00:27:10;;;;;;;1.00;0.70;;;11.70;99.90;;;;;;5052564;28;20792;-68
2023/09/23 00:29:36;;;;;;;6.30;1.00;;;11.70;99.90;;;;;;5051763;28;20274;-67
2023/09/23 00:32:02;;;;;;;1.37;0.80;;;11.70;99.90;;;;;;5044007;28;20183;-67
2023/09/23 00:34:29;;;;;;;1.17;0.70;;;11.70;99.90;;;;;;5052473;28;20261;-68
2023/09/23 00:36:54;;;;;;;1.10;0.70;;;11.70;99.90;;;;;;5052230;28;20198;-68
2023/09/23 00:39:20;;;;;;;1.37;0.77;;;11.60;99.90;;;;;;5044593;28;20178;-67
2023/09/23 00:41:45;;;;;;;2.40;0.90;;;11.60;99.90;;;;;;5051119;28;20191;-68
2023/09/23 00:44:11;;;;;;;1.00;0.70;;;11.50;99.90;;;;;;5052328;28;20171;-68
2023/09/23 00:46:37;;;;;;;0.80;0.63;;;11.50;99.90;;;;;;5051877;28;20222;-68
2023/09/23 00:49:07;;;;;;;1.80;0.60;;;11.40;99.90;;;;;;5051398;28;20245;-67
2023/09/23 00:51:33;;;;;;;1.40;0.70;;;11.30;99.90;;;;;;5051636;28;20620;-68
2023/09/23 00:54:01;;;;;;;2.17;0.90;;;11.40;99.90;;;;;;5051728;28;20546;-67
2023/09/23 00:56:31;;;;;;;1.03;0.70;;;11.40;99.90;;;;;;5051972;28;20195;-67
2023/09/23 00:58:59;;;;;;;2.10;0.67;;;11.50;99.90;;;;;;5036117;28;20183;-68
2023/09/23 01:01:26;;;;;;;2.07;0.70;;;11.50;99.90;;;;;;5043641;28;20188;-67
2023/09/23 01:03:52;;;;;;;3.00;0.90;;;11.50;99.90;;;;;;5051623;28;20537;-68
2023/09/23 01:06:19;;;;;;;1.33;0.80;;;11.50;99.90;;;;;;5051909;28;20198;-67
2023/09/23 01:08:46;;;;;;;5.17;0.90;;;11.40;99.90;;;;;;5050961;28;20663;-67
2023/09/23 01:11:12;;;;;;;3.80;0.90;;;11.50;99.90;;;;;;5051821;28;20187;-68
2023/09/23 01:13:38;;;;;;;1.00;0.60;;;11.40;99.90;;;;;;5051543;28;20183;-67
2023/09/23 01:16:11;;;;;;;0.90;0.70;;;11.50;99.90;;;;;;5051454;28;20376;-67
2023/09/23 01:18:38;;;;;;;2.30;0.93;;;11.50;99.90;;;;;;5050627;28;20701;-68
2023/09/23 01:21:06;;;;;;;0.80;0.60;;;11.40;99.90;;;;;;5051544;28;20179;-67
2023/09/23 01:23:34;;;;;;;1.77;1.10;;;11.40;99.90;;;;;;5042264;28;20268;-67
2023/09/23 01:26:00;;;;;;;2.07;0.67;;;11.40;99.90;;;;;;5044196;28;20283;-67
2023/09/23 01:28:25;;;;;;;4.10;0.90;;;11.40;99.90;;;;;;5051006;28;20265;-67
2023/09/23 01:30:51;;;;;;;6.27;0.70;;;11.50;99.90;;;;;;5051181;28;20248;-67
2023/09/23 01:33:17;;;;;;;0.83;0.67;;;11.50;99.90;;;;;;5043026;28;20274;-67
2023/09/23 01:35:43;;;;;;;1.43;0.60;;;11.50;99.90;;;;;;5034446;28;20290;-67
2023/09/23 01:38:09;;;;;;;1.57;0.87;;;11.50;99.90;;;;;;5042408;28;20180;-67
2023/09/23 01:40:36;;;;;;;4.40;1.03;;;11.50;99.90;;;;;;5051030;28;20191;-67
2023/09/23 01:43:02;;;;;;;4.77;1.10;;;11.50;99.90;;;;;;5051187;28;20183;-67
2023/09/23 01:45:30;;;;;;;4.73;1.60;;;11.60;99.90;;;;;;5050961;28;20194;-67
2023/09/23 01:47:56;;;;;;;3.60;1.33;;;11.60;99.90;;;;;;5050361;28;20337;-67
2023/09/23 01:50:23;;;;;;;3.83;0.80;;;11.60;99.90;;;;;;5051162;28;20546;-67
2023/09/23 01:52:49;;;;;;;1.97;0.73;;;11.60;99.90;;;;;;5050779;28;20183;-68
2023/09/23 01:55:16;;;;;;;5.03;0.97;;;11.60;99.90;;;;;;5050866;28;20194;-68
2023/09/23 01:57:42;;;;;;;2.23;0.80;;;11.70;99.90;;;;;;5048691;28;20199;-68
2023/09/23 02:00:12;;;;;;;2.30;0.90;;;11.60;99.90;;;;;;5044232;28;20171;-68
2023/09/23 02:02:38;;;;;;;1.50;0.80;;;11.60;99.90;;;;;;5050485;28;20179;-68
2023/09/23 02:05:05;;;;;;;5.93;0.90;;;11.70;99.90;;;;;;5050835;28;20186;-68
2023/09/23 02:07:30;;;;;;;2.27;0.90;;;11.70;99.90;;;;;;5050529;28;20179;-67
2023/09/23 02:09:56;;;;;;;1.00;0.60;;;11.70;99.90;;;;;;5042014;28;20677;-68
2023/09/23 02:12:24;;;;;;;4.47;0.70;;;11.70;99.90;;;;;;5050672;28;20187;-68
2023/09/23 02:14:51;;;;;;;1.37;0.73;;;11.70;99.90;;;;;;5050496;28;20191;-68
2023/09/23 02:17:19;;;;;;;2.33;1.10;;;11.60;99.90;;;;;;5050357;28;20210;-68
2023/09/23 02:19:46;;;;;;;2.83;0.90;;;11.70;99.90;;;;;;5049644;28;20352;-68
2023/09/23 02:22:12;;;;;;;1.80;0.90;;;11.70;99.90;;;;;;5050618;28;20171;-67
2023/09/23 02:24:38;;;;;;;2.70;0.80;;;11.70;99.90;;;;;;5050350;28;20183;-68
2023/09/23 02:27:03;;;;;;;0.77;0.60;;;11.70;99.90;;;;;;5050362;28;20244;-68
2023/09/23 02:29:32;;;;;;;1.10;0.57;;;11.70;99.90;;;;;;5049384;28;20551;-67
2023/09/23 02:31:59;;;;;;;1.33;0.90;;;11.60;99.90;;;;;;5050220;28;20260;-68
2023/09/23 02:34:25;;;;;;;3.80;0.70;;;11.60;99.90;;;;;;5050302;28;20190;-68
2023/09/23 02:36:50;;;;;;;1.40;0.73;;;11.60;99.90;;;;;;5049926;28;20206;-67
2023/09/23 02:39:19;;;;;;;1.80;1.20;;;11.70;99.90;;;;;;5049621;28;20261;-68
2023/09/23 02:41:49;;;;;;;3.87;1.20;;;11.70;99.90;;;;;;5050050;28;20183;-68
2023/09/23 02:44:18;;;;;;;2.13;1.40;;;11.70;99.90;;;;;;5050283;28;20175;-68
2023/09/23 02:46:53;;;;;;;7.73;1.20;;;11.70;99.90;;;;;;5047827;28;20613;-68
2023/09/23 02:49:19;;;;;;;1.47;1.10;;;11.70;99.90;;;;;;5044755;28;20248;-69
2023/09/23 02:51:45;;;;;;;8.73;0.70;;;11.60;99.90;;;;;;5041579;28;20226;-68
2023/09/23 02:54:17;;;;;;;2.83;1.00;;;11.60;99.90;;;;;;5050082;28;20175;-68
2023/09/23 02:56:46;;;;;;;8.40;1.10;;;11.60;99.90;;;;;;5049624;28;20214;-68
2023/09/23 02:59:15;;;;;;;7.77;0.80;;;11.50;99.90;;;;;;5049447;28;20572;-68
2023/09/23 03:01:45;;;;;;;4.70;1.23;;;11.50;99.90;;;;;;5064797;28;20171;-68
2023/09/23 03:04:16;;;;;;;10.63;1.70;;;11.50;99.90;;;;;;5049894;28;20646;-68
2023/09/23 03:06:49;;;;;;;3.90;1.00;;;11.40;99.90;;;;;;5049720;28;20256;-67
2023/09/23 03:09:28;;;;;;;5.50;1.60;;;11.40;99.90;;;;;;5049377;28;20203;-68
2023/09/23 03:11:55;;;;;;;1.77;1.23;;;11.30;99.90;;;;;;5049783;28;20191;-68
2023/09/23 03:14:35;;;;;;;1.47;1.10;;;11.30;99.90;;;;;;5049986;28;20191;-68
2023/09/23 03:17:03;;;;;;;2.07;1.00;;;11.30;99.90;;;;;;5036448;28;20760;-68
2023/09/23 03:19:31;;;;;;;3.83;1.50;;;11.30;99.90;;;;;;5053123;28;20191;-68
2023/09/23 03:21:57;;;;;;;8.87;1.40;;;11.30;99.90;;;;;;5029800;28;20647;-68
2023/09/23 03:24:31;;;;;;;4.03;1.20;;;11.30;99.90;;;;;;5053854;28;20258;-68
2023/09/23 03:26:58;;;;;;;4.93;1.30;;;11.40;99.90;;;;;;5053588;28;20559;-68
2023/09/23 03:29:29;;;;;;;5.40;1.40;;;11.40;99.90;;;;;;5051767;28;20659;-68
2023/09/23 03:31:55;;;;;;;2.57;1.13;;;11.40;99.90;;;;;;5053636;28;20194;-68
2023/09/23 03:34:21;;;;;;;3.70;1.43;;;11.40;99.90;;;;;;5046689;28;20221;-68
2023/09/23 03:36:47;;;;;;;3.50;1.30;;;11.40;99.90;;;;;;5052106;28;20206;-68
2023/09/23 03:39:13;;;;;;;3.80;2.00;;;11.30;99.90;;;;;;5052862;28;20556;-68
2023/09/23 03:41:38;;;;;;;5.73;1.30;;;11.30;99.90;;;;;;5053209;28;20186;-69
2023/09/23 03:44:05;;;;;;;3.30;1.00;;;11.30;99.90;;;;;;5051138;28;20271;-68
2023/09/23 03:46:31;;;;;;;2.47;0.83;;;11.20;99.90;;;;;;5053088;28;20203;-69
2023/09/23 03:48:57;;;;;;;2.77;0.90;;;11.20;99.90;;;;;;5044496;28;20229;-68
2023/09/23 03:51:24;;;;;;;1.23;0.80;;;11.20;99.90;;;;;;5053359;28;20643;-68
2023/09/23 03:53:51;;;;;;;2.63;0.90;;;11.10;99.90;;;;;;5053169;28;20725;-68
2023/09/23 03:56:17;;;;;;;4.03;1.03;;;11.10;99.90;;;;;;5052998;28;20230;-68
2023/09/23 03:58:44;;;;;;;2.03;1.30;;;11.00;99.90;;;;;;5052258;28;20179;-67
2023/09/23 04:01:13;;;;;;;2.07;1.20;;;11.00;99.90;;;;;;5053275;28;20183;-68
2023/09/23 04:03:42;;;;;;;4.50;1.20;;;11.00;99.90;;;;;;5052707;28;20175;-68
2023/09/23 04:06:07;;;;;;;2.77;1.20;;;10.90;99.90;;;;;;5053089;28;20207;-68
2023/09/23 04:08:33;;;;;;;3.87;1.20;;;10.90;99.90;;;;;;5052120;28;20553;-68
2023/09/23 04:11:07;;;;;;;2.30;0.83;;;10.90;99.90;;;;;;5052904;28;20187;-68
2023/09/23 04:13:33;;;;;;;5.10;1.10;;;10.90;99.90;;;;;;5052776;28;20179;-68
2023/09/23 04:16:02;;;;;;;2.77;1.00;;;10.90;99.90;;;;;;5048882;28;20211;-68
2023/09/23 04:18:28;;;;;;;5.63;1.00;;;10.90;99.90;;;;;;5046868;28;20215;-68
2023/09/23 04:20:54;;;;;;;4.43;1.10;;;10.90;99.90;;;;;;5067988;28;20182;-68
2023/09/23 04:23:20;;;;;;;3.17;1.07;;;10.90;99.90;;;;;;5052685;28;20176;-68
2023/09/23 04:25:48;;;;;;;4.93;1.00;;;10.90;99.90;;;;;;5052599;28;20201;-67
2023/09/23 04:28:13;;;;;;;9.00;1.40;;;10.90;99.90;;;;;;5050788;28;20537;-68
2023/09/23 04:30:39;;;;;;;4.53;1.13;;;10.90;99.90;;;;;;5052337;28;20187;-68
2023/09/23 04:33:05;;;;;;;2.80;1.07;;;10.90;99.90;;;;;;5052402;28;20222;-67
2023/09/23 04:35:30;;;;;;;2.07;1.10;;;10.90;99.90;;;;;;5044471;28;20208;-68
2023/09/23 04:37:56;;;;;;;4.53;1.20;;;10.90;99.90;;;;;;5043357;28;20210;-68
2023/09/23 04:40:21;;;;;;;3.73;1.13;;;10.90;99.90;;;;;;5052264;28;20518;-68
2023/09/23 04:42:50;;;;;;;2.43;1.30;;;10.90;99.90;;;;;;5052121;28;20187;-68
2023/09/23 04:45:17;;;;;;;3.70;1.10;;;10.90;99.90;;;;;;5052198;28;20187;-68
2023/09/23 04:47:47;;;;;;;2.93;1.10;;;10.90;99.90;;;;;;5045297;28;20211;-68
2023/09/23 04:50:13;;;;;;;2.30;0.83;;;10.90;99.90;;;;;;5043209;28;20294;-68
2023/09/23 04:52:39;;;;;;;7.77;1.20;;;10.90;99.90;;;;;;5047921;28;20700;-68
2023/09/23 04:55:06;;;;;;;5.57;1.37;;;10.80;99.90;;;;;;5044996;28;20171;-68
2023/09/23 04:57:32;;;;;;;8.13;1.27;;;10.80;99.90;;;;;;5051765;28;20363;-67
2023/09/23 04:59:58;;;;;;;1.57;1.30;;;10.80;99.90;;;;;;5051453;28;20694;-68
2023/09/23 05:02:23;;;;;;;3.07;1.27;;;10.80;99.90;;;;;;5051936;28;20580;-68
2023/09/23 05:04:53;;;;;;;4.07;1.10;;;10.70;99.90;;;;;;5067056;28;20194;-68
2023/09/23 05:07:25;;;;;;;3.70;1.30;;;10.70;99.90;;;;;;5051653;28;20199;-68
2023/09/23 05:09:51;;;;;;;2.00;1.20;;;10.70;99.90;;;;;;5050946;28;20198;-68
2023/09/23 05:12:18;;;;;;;2.63;1.20;;;10.70;99.90;;;;;;5051824;28;20190;-68
2023/09/23 05:14:44;;;;;;;2.60;1.43;;;10.60;99.90;;;;;;5066725;28;20708;-68
2023/09/23 05:17:15;;;;;;;5.90;1.30;;;10.60;99.90;;;;;;5051345;28;20249;-68
2023/09/23 05:19:46;;;;;;;6.57;1.30;;;10.60;99.90;;;;;;5050645;28;20742;-68
2023/09/23 05:22:12;;;;;;;3.40;1.67;;;10.60;99.90;;;;;;5050766;28;20722;-68
2023/09/23 05:24:38;;;;;;;6.23;1.90;;;10.60;99.90;;;;;;5049044;28;20179;-68
2023/09/23 05:27:04;;;;;;;6.57;1.90;;;10.60;99.90;;;;;;5050740;28;20195;-67
2023/09/23 05:29:30;;;;;;;2.00;1.60;;;10.60;99.90;;;;;;5049947;28;20228;-68
2023/09/23 05:31:56;;;;;;;5.00;1.70;;;10.60;99.90;;;;;;5042249;28;20716;-68
2023/09/23 05:34:22;;;;;;;1.97;1.40;;;10.70;99.90;;;;;;5050481;28;20171;-68
2023/09/23 05:36:48;;;;;;;6.10;1.87;;;10.70;99.90;;;;;;5042134;28;20629;-68
2023/09/23 05:39:19;;;;;;;4.03;1.43;;;10.70;99.90;;;;;;5041673;28;20187;-67
2023/09/23 05:41:48;;;;;;;7.40;2.03;;;10.80;99.90;;;;;;5048656;28;20256;-68
2023/09/23 05:44:15;;;;;;;4.43;1.40;;;10.80;99.90;;;;;;5038882;28;20793;-68
2023/09/23 05:46:42;;;;;;;2.70;1.40;;;10.80;99.90;;;;;;5039962;28;20234;-68
2023/09/23 05:49:14;;;;;;;2.57;1.50;;;10.80;99.90;;;;;;5036406;28;20172;-68
2023/09/23 05:51:40;;;;;;;2.90;1.50;;;10.80;99.90;;;;;;5038810;28;20194;-68
2023/09/23 05:54:08;;;;;;;3.07;1.53;;;10.90;99.90;;;;;;5030669;28;20184;-68
2023/09/23 05:56:33;;;;;;;4.43;1.90;;;10.90;99.90;;;;;;5030208;28;20260;-69
2023/09/23 05:58:59;;;;;;;3.70;1.60;;;11.00;99.90;;;;;;5030055;28;20255;-68
2023/09/23 06:01:24;;;;;;;4.97;1.40;;;11.00;99.90;;;;;;5030776;28;20184;-68
2023/09/23 06:03:50;;;;;;;3.57;1.77;;;11.10;99.90;;;;;;5030803;28;20176;-69
2023/09/23 06:06:16;;;;;;;4.47;1.50;;;11.20;99.90;;;;;;5031752;28;20742;-69
2023/09/23 06:08:41;;;;;;;7.67;1.50;;;11.20;99.90;;;;;;5037409;28;20270;-69
2023/09/23 06:11:09;;;;;;;5.53;1.60;;;11.20;99.90;;;;;;5042136;28;20219;-69
2023/09/23 06:13:35;;;;;;;3.77;2.10;;;11.30;99.90;;;;;;5038062;28;20192;-69
2023/09/23 06:16:04;;;;;;;2.47;1.57;;;11.40;99.90;;;;;;5042051;28;20202;-69
2023/09/23 06:18:31;;;;;;;3.53;1.50;;;11.50;99.90;;;;;;5032886;28;20728;-68
2023/09/23 06:21:06;;;;;;;5.07;1.47;;;11.50;99.90;;;;;;5038092;28;20172;-68
2023/09/23 06:23:32;;;;;;;6.10;1.53;;;11.60;99.90;;;;;;5038135;28;20174;-68
2023/09/23 06:26:01;;;;;;;8.97;1.43;;;11.60;99.90;;;;;;5022055;28;20547;-68
2023/09/23 06:28:27;;;;;;;4.17;1.47;;;11.70;99.90;;;;;;5029117;28;20176;-69
2023/09/23 06:30:53;;;;;;;4.07;1.60;;;11.90;99.90;;;;;;5029736;28;20172;-68
2023/09/23 06:33:21;;;;;;;4.37;1.60;;;12.00;99.90;;;;;;5029774;28;20199;-68
2023/09/23 06:35:48;;;;;;;5.30;1.67;;;11.90;99.90;;;;;;5047985;28;20281;-68
2023/09/23 06:38:13;;;;;;;3.43;2.33;;;11.90;99.90;;;;;;5040693;28;20202;-68
2023/09/23 06:40:39;;;;;;;3.30;1.50;;;12.00;99.90;;;;;;5048355;28;20491;-68
2023/09/23 06:43:05;;;;;;;3.90;1.90;;;12.10;99.90;;;;;;5049552;28;20183;-68
2023/09/23 06:45:30;;;;;;;6.17;1.93;;;12.30;99.90;;;;;;5041235;28;20521;-68
2023/09/23 06:47:56;;;;;;;3.10;1.50;;;12.60;99.90;;;;;;5028839;28;20191;-68
2023/09/23 06:50:22;;;;;;;2.03;1.30;;;12.80;99.90;;;;;;5037773;28;20187;-69
2023/09/23 06:52:47;;;;;;;11.53;1.47;;;12.80;99.90;;;;;;5030987;28;20191;-69
2023/09/23 06:55:13;;;;;;;5.37;1.23;;;13.00;99.90;;;;;;5035589;28;20214;-69
2023/09/23 06:57:38;;;;;;;5.43;1.07;;;13.00;99.90;;;;;;5038617;28;20761;-69
2023/09/23 07:00:06;;;;;;;1.73;1.30;;;13.00;99.90;;;;;;5048918;28;20183;-68
2023/09/23 07:02:32;;;;;;;4.33;1.10;;;13.10;99.90;;;;;;5041132;28;20194;-68
2023/09/23 07:04:58;;;;;;;2.47;1.27;;;13.40;99.90;;;;;;5024736;28;20253;-68
2023/09/23 07:07:23;;;;;;;7.40;1.20;;;13.70;99.90;;;;;;5034009;28;20191;-68
2023/09/23 07:09:49;;;;;;;2.57;1.10;;;14.00;99.90;;;;;;5029635;28;20188;-68
2023/09/23 07:12:15;;;;;;;5.17;0.93;;;14.30;99.90;;;;;;5035244;28;20754;-68
2023/09/23 07:14:41;;;;;;;2.87;0.90;;;14.60;99.90;;;;;;5029248;28;20215;-68
2023/09/23 07:17:06;;;;;;;2.47;1.00;;;14.90;99.90;;;;;;5029406;28;20557;-68
2023/09/23 07:19:33;;;;;;;4.73;1.30;;;14.80;99.90;;;;;;5036716;28;20253;-69
2023/09/23 07:21:59;;;;;;;3.97;1.10;;;14.70;99.90;;;;;;5029441;28;20176;-68
2023/09/23 07:24:26;;;;;;;5.43;0.90;;;14.80;99.90;;;;;;5036355;28;20214;-68
2023/09/23 07:26:54;;;;;;;5.03;1.00;;;14.70;99.90;;;;;;5040747;28;20211;-68
2023/09/23 07:29:20;;;;;;;6.30;1.30;;;14.60;99.90;;;;;;5033785;28;20245;-68
2023/09/23 07:31:45;;;;;;;3.60;0.90;;;14.50;99.90;;;;;;5037278;28;20668;-68
2023/09/23 07:34:11;;;;;;;4.87;0.87;;;14.40;99.90;;;;;;5033948;28;20325;-68
2023/09/23 07:36:37;;;;;;;2.63;0.87;;;14.50;99.90;;;;;;5039857;28;20215;-68
2023/09/23 07:39:03;;;;;;;3.63;1.00;;;14.50;99.90;;;;;;5028627;28;20258;-69
2023/09/23 07:41:28;;;;;;;3.67;0.90;;;14.70;99.90;;;;;;5035829;28;20190;-69
2023/09/23 07:43:54;;;;;;;6.10;0.90;;;14.90;99.90;;;;;;5037688;28;20180;-68
2023/09/23 07:46:20;;;;;;;4.33;0.90;;;15.00;99.90;;;;;;5035666;28;20214;-68
2023/09/23 07:48:46;;;;;;;4.40;0.90;;;15.10;99.90;;;;;;5040018;28;20207;-68
2023/09/23 07:51:12;;;;;;;7.23;1.10;;;15.10;99.90;;;;;;5040817;28;20650;-67
2023/09/23 07:53:37;;;;;;;4.53;1.20;;;15.20;99.90;;;;;;5040542;28;20188;-68
2023/09/23 07:56:03;;;;;;;2.07;0.90;;;15.40;99.90;;;;;;5048776;28;20257;-68
2023/09/23 07:58:29;;;;;;;4.27;0.93;;;15.70;99.90;;;;;;5032416;28;20212;-68
2023/09/23 08:00:54;;;;;;;3.27;0.90;;;16.00;99.90;;;;;;5040039;28;20175;-68
2023/09/23 08:03:20;;;;;;;4.07;0.87;;;16.10;99.90;;;;;;5044206;28;20652;-68
2023/09/23 08:05:45;;;;;;;3.63;0.90;;;15.80;99.90;;;;;;5042148;28;20627;-68
2023/09/23 08:08:11;;;;;;;4.07;0.80;;;15.60;99.90;;;;;;5038310;28;20647;-69
2023/09/23 08:10:36;;;;;;;6.10;1.03;;;15.50;99.90;;;;;;5041082;28;20187;-68
2023/09/23 08:13:02;;;;;;;5.73;1.07;;;15.30;99.90;;;;;;5048560;28;20569;-68
2023/09/23 08:15:28;;;;;;;7.73;1.03;;;15.10;99.90;;;;;;5032274;28;20248;-68
2023/09/23 08:17:54;;;;;;;3.63;0.90;;;15.10;99.90;;;;;;5031422;28;20302;-67
2023/09/23 08:20:22;;;;;;;5.37;1.00;;;15.10;99.90;;;;;;5040507;28;20283;-68
2023/09/23 08:22:48;;;;;;;6.90;1.00;;;15.10;99.90;;;;;;5040304;28;20590;-68
2023/09/23 08:25:15;;;;;;;7.40;1.10;;;14.90;99.90;;;;;;5039148;28;20711;-68
2023/09/23 08:27:41;;;;;;;4.07;1.00;;;14.90;99.90;;;;;;5031821;28;20584;-68
2023/09/23 08:30:09;;;;;;;5.77;1.33;;;14.80;99.90;;;;;;5035283;28;20190;-67
2023/09/23 08:32:36;;;;;;;4.47;0.90;;;14.90;99.90;;;;;;5043486;28;20227;-69
2023/09/23 08:35:02;;;;;;;3.90;0.90;;;15.10;99.90;;;;;;5047963;28;20227;-68
2023/09/23 08:37:28;;;;;;;3.87;1.00;;;15.30;99.90;;;;;;5047393;28;20237;-68
2023/09/23 08:39:54;;;;;;;1.70;0.97;;;15.70;99.90;;;;;;5040296;28;20248;-68
2023/09/23 08:42:22;;;;;;;2.60;0.53;;;16.40;99.90;;;;;;5040118;28;20620;-68
2023/09/23 08:44:49;;;;;;;3.63;1.10;;;17.20;99.90;;;;;;5039737;28;20563;-68
2023/09/23 08:47:18;;;;;;;2.57;0.70;;;17.90;99.90;;;;;;5036932;28;20207;-68
2023/09/23 08:49:47;;;;;;;3.30;0.90;;;18.20;99.90;;;;;;5065671;28;20187;-68
2023/09/23 08:52:18;;;;;;;2.70;0.80;;;18.40;99.90;;;;;;5043279;28;20271;-68
2023/09/23 08:54:48;;;;;;;4.80;1.00;;;18.70;99.90;;;;;;5043059;28;20237;-69
2023/09/23 08:57:16;;;;;;;6.93;0.93;;;18.50;99.90;;;;;;5043136;28;20242;-69
2023/09/23 08:59:42;;;;;;;2.83;0.90;;;18.00;99.90;;;;;;5041425;28;20662;-69
2023/09/23 09:02:07;;;;;;;3.60;0.87;;;17.40;99.90;;;;;;5036192;28;20179;-70
2023/09/23 09:04:33;;;;;;;3.13;0.77;;;17.20;99.90;;;;;;5051146;28;20191;-69
2023/09/23 09:06:59;;;;;;;2.53;0.70;;;17.00;99.90;;;;;;5051314;28;20678;-70
2023/09/23 09:09:25;;;;;;;4.93;0.60;;;16.90;99.90;;;;;;5050536;28;20272;-70
2023/09/23 09:11:53;;;;;;;3.17;0.70;;;16.70;99.90;;;;;;5050944;28;20659;-71
2023/09/23 09:14:19;;;;;;;4.13;1.00;;;17.40;99.90;;;;;;5050637;28;20179;-70
2023/09/23 09:16:45;;;;;;;21.60;7.80;;;17.90;99.90;;;;;;5034318;28;20219;-70
2023/09/23 09:19:11;;;;;;;6.63;0.90;;;18.20;99.90;;;;;;5036821;28;20206;-71
2023/09/23 09:21:37;;;;;;;1.57;0.60;;;18.30;99.90;;;;;;5039570;28;20228;-71
2023/09/23 09:24:04;;;;;;;2.17;0.70;;;18.80;99.90;;;;;;5039523;28;20586;-71
2023/09/23 09:26:30;;;;;;;3.87;0.97;;;18.90;99.90;;;;;;5030901;28;20219;-69
2023/09/23 09:28:56;;;;;;;4.47;0.90;;;18.90;99.90;;;;;;5030258;28;20198;-70
2023/09/23 09:31:35;;;;;;;2.03;0.80;;;18.70;99.90;;;;;;5030964;28;20290;-66
2023/09/23 09:34:11;;;;;;;3.93;1.00;;;18.60;99.90;;;;;;5022873;28;20198;-65
2023/09/23 09:36:38;;;;;;;2.30;0.70;;;18.80;99.90;;;;;;5037764;28;20214;-69
2023/09/23 09:39:08;;;;;;;3.07;0.80;;;19.00;99.90;;;;;;5037328;28;20644;-67
2023/09/23 09:41:43;;;;;;;2.93;0.93;;;19.80;99.90;;;;;;5030772;28;20175;-68
2023/09/23 09:44:09;;;;;;;2.97;0.70;;;20.50;99.90;;;;;;5039091;28;20270;-68
2023/09/23 09:46:39;;;;;;;3.93;0.70;;;21.10;99.90;;;;;;5038765;28;20207;-67
2023/09/23 09:49:06;;;;;;;6.57;0.80;;;21.40;99.90;;;;;;5030092;28;20186;-69
2023/09/23 09:51:33;;;;;;;3.33;0.83;;;20.90;99.90;;;;;;5030308;28;20199;-68
2023/09/23 09:54:00;;;;;;;4.63;0.70;;;20.50;99.90;;;;;;5042155;28;20195;-69
2023/09/23 09:56:27;;;;;;;3.37;0.70;;;19.70;99.90;;;;;;5043232;28;20709;-68
2023/09/23 09:58:56;;;;;;;1.43;0.97;;;20.10;99.90;;;;;;5037850;28;20179;-68
2023/09/23 10:01:26;;;;;;;2.97;0.87;;;20.90;99.90;;;;;;5030530;28;20639;-68
2023/09/23 10:03:53;;;;;;;3.53;0.83;;;21.80;99.90;;;;;;5045194;28;20187;-68
2023/09/23 10:06:19;;;;;;;1.93;0.80;;;22.10;99.90;;;;;;5030195;28;20215;-67
2023/09/23 10:08:48;;;;;;;4.13;0.80;;;22.10;99.90;;;;;;5029537;28;20537;-67
2023/09/23 10:11:15;;;;;;;2.23;0.70;;;22.40;99.90;;;;;;5030254;28;20210;-67
2023/09/23 10:13:42;;;;;;;3.33;1.10;;;22.50;99.90;;;;;;5038405;28;20217;-67
2023/09/23 10:16:19;;;;;;;6.10;0.73;;;22.20;99.90;;;;;;5029982;28;20200;-67
2023/09/23 10:18:53;;;;;;;2.97;0.93;;;22.60;99.90;;;;;;5029410;28;20318;-67
2023/09/23 10:21:23;;;;;;;4.27;1.10;;;22.30;99.90;;;;;;5030227;28;20254;-67
2023/09/23 10:23:51;;;;;;;4.70;0.60;;;21.00;99.90;;;;;;5039956;28;20730;-67
2023/09/23 10:26:18;;;;;;;5.77;0.90;;;20.70;99.90;;;;;;5035056;28;20207;-68
2023/09/23 10:29:05;;;;;;;2.30;0.90;;;20.60;99.90;;;;;;5045576;28;20179;-67
2023/09/23 10:31:34;;;;;;;2.93;0.93;;;19.80;99.90;;;;;;5029831;28;20546;-67
2023/09/23 10:34:04;;;;;;;3.87;0.70;;;19.50;99.90;;;;;;5028821;28;20198;-68
2023/09/23 10:36:30;;;;;;;2.60;0.90;;;20.10;99.90;;;;;;5029915;28;20208;-68
2023/09/23 10:38:56;;;;;;;2.97;0.90;;;20.90;99.90;;;;;;5028983;28;20191;-71
2023/09/23 10:41:32;;;;;;;6.00;0.97;;;21.30;99.90;;;;;;5029433;28;20187;-70
2023/09/23 10:43:57;;;;;;;2.57;0.80;;;21.70;99.90;;;;;;5029294;28;20210;-73
2023/09/23 10:46:23;;;;;;;4.33;0.97;;;21.70;99.90;;;;;;5037680;28;20557;-67
2023/09/23 10:48:49;;;;;;;4.20;1.00;;;20.90;99.90;;;;;;5035508;28;20564;-68
2023/09/23 10:51:15;;;;;;;3.30;0.80;;;20.40;99.90;;;;;;5029107;28;20195;-68
2023/09/23 10:53:42;;;;;;;4.27;0.83;;;19.90;99.90;;;;;;5029155;28;20614;-67
2023/09/23 10:56:10;;;;;;;3.23;0.80;;;19.60;99.90;;;;;;5029524;28;20195;-68
2023/09/23 10:58:36;;;;;;;4.00;1.03;;;19.50;99.90;;;;;;5036895;28;20831;-67
2023/09/23 11:01:04;;;;;;;2.53;0.87;;;19.40;99.90;;;;;;5029621;28;20186;-68
2023/09/23 11:03:36;;;;;;;1.70;0.70;;;19.50;99.90;;;;;;5029515;28;20711;-69
2023/09/23 11:06:04;;;;;;;1.93;1.00;;;19.60;99.90;;;;;;5029735;28;20207;-68
2023/09/23 11:08:29;;;;;;;2.87;0.80;;;19.50;99.90;;;;;;5028879;28;20176;-67
2023/09/23 11:10:57;;;;;;;2.20;0.73;;;19.30;99.90;;;;;;5029337;28;20622;-67
2023/09/23 11:13:25;;;;;;;4.30;1.00;;;19.00;99.90;;;;;;5037737;28;20564;-67
2023/09/23 11:15:51;;;;;;;5.13;1.20;;;18.90;99.90;;;;;;5029125;28;20229;-68
2023/09/23 11:18:17;;;;;;;4.47;1.23;;;18.70;99.90;;;;;;5028401;28;20211;-67
2023/09/23 11:20:47;;;;;;;2.43;0.67;;;18.50;99.90;;;;;;5029220;28;20190;-68
2023/09/23 11:23:13;;;;;;;3.30;1.00;;;18.70;99.90;;;;;;5029462;28;20176;-67
2023/09/23 11:25:42;;;;;;;2.97;0.70;;;18.70;99.90;;;;;;5029421;28;20210;-68
2023/09/23 11:28:24;;;;;;;4.17;0.80;;;18.40;99.90;;;;;;5033098;28;20186;-67
2023/09/23 11:30:51;;;;;;;4.13;0.77;;;18.40;99.90;;;;;;5039069;28;20194;-67
2023/09/23 11:33:18;;;;;;;1.63;0.80;;;18.20;99.90;;;;;;5028987;28;20176;-68
2023/09/23 11:35:45;;;;;;;3.53;0.80;;;18.10;99.90;;;;;;5037072;28;20280;-67
2023/09/23 11:38:11;;;;;;;5.07;0.93;;;18.10;99.90;;;;;;5029960;28;20683;-68
2023/09/23 11:40:38;;;;;;;3.13;1.00;;;17.90;99.90;;;;;;5032845;28;20195;-69
2023/09/23 11:43:04;;;;;;;1.83;0.80;;;17.70;99.90;;;;;;5032909;28;20214;-67
2023/09/23 11:45:35;;;;;;;4.17;1.00;;;17.60;99.90;;;;;;5032258;28;20200;-68
2023/09/23 11:48:03;;;;;;;2.87;1.00;;;17.60;99.90;;;;;;5040348;28;20616;-67
2023/09/23 11:50:29;;;;;;;2.67;0.90;;;17.80;99.90;;;;;;5032913;28;20674;-67
2023/09/23 11:52:55;;;;;;;6.03;1.30;;;17.90;99.90;;;;;;5032532;28;20183;-68
2023/09/23 11:55:22;;;;;;;2.93;0.90;;;18.00;99.90;;;;;;5032649;28;20286;-69
2023/09/23 11:57:51;;;;;;;1.20;0.80;;;18.10;99.90;;;;;;5032363;28;20219;-68
2023/09/23 12:00:16;;;;;;;4.53;1.27;;;18.10;99.90;;;;;;5032061;28;20609;-68
2023/09/23 12:02:42;;;;;;;2.77;1.03;;;18.10;99.90;;;;;;5040592;28;20199;-67
2023/09/23 12:05:17;;;;;;;4.17;1.00;;;18.10;99.90;;;;;;5036833;28;21171;-68
2023/09/23 12:07:43;;;;;;;2.10;1.00;;;18.00;99.90;;;;;;5052220;28;20358;-68
2023/09/23 12:10:10;;;;;;;3.53;1.20;;;18.10;99.90;;;;;;5039108;28;20567;-71
2023/09/23 12:12:38;;;;;;;2.67;1.10;;;18.10;99.90;;;;;;5032532;28;20576;-71
2023/09/23 12:15:05;;;;;;;3.80;1.10;;;18.10;99.90;;;;;;5035299;28;20218;-69
2023/09/23 12:17:31;;;;;;;4.63;2.17;;;17.90;99.90;;;;;;5042888;28;20221;-69
2023/09/23 12:19:56;;;;;;;5.93;1.83;;;17.90;99.90;;;;;;5031173;28;20531;-69
2023/09/23 12:22:22;;;;;;;5.83;2.17;;;17.90;99.90;;;;;;5037916;28;20207;-70
2023/09/23 12:24:50;;;;;;;5.00;2.00;;;17.90;99.90;;;;;;5035211;28;20183;-69
2023/09/23 12:27:17;;;;;;;7.80;2.90;;;17.90;99.90;;;;;;5051871;28;20282;-68
2023/09/23 12:29:42;;;;;;;8.07;3.10;;;17.90;99.90;;;;;;5043120;28;20190;-68
2023/09/23 12:32:10;;;;;;;8.57;2.27;;;18.10;99.90;;;;;;5052000;28;20224;-68
2023/09/23 12:34:36;;;;;;;8.93;1.40;;;18.20;99.90;;;;;;5051401;28;20198;-68
2023/09/23 12:37:01;;;;;;;3.00;1.30;;;18.50;99.90;;;;;;5038288;28;20204;-68
2023/09/23 12:39:27;;;;;;;4.47;1.40;;;18.80;99.90;;;;;;5034017;28;20192;-67
2023/09/23 12:41:53;;;;;;;5.57;1.33;;;19.00;99.90;;;;;;5029456;28;20194;-67
2023/09/23 12:44:18;;;;;;;5.17;0.97;;;19.40;99.90;;;;;;5031003;28;20183;-67